Terminal Aerodrome Forecast
Issued by NWS

Home | Current Version | Previous Version | Text Only | Print | Product List | Glossary On
Versions: 1 2 3 4 5 6 7 8 9 10 11 12 13 14 15 16 17 18 19 20 21 22 23 24 25 26 27
052
FTUS43 KGRR 232340
TAFMKG
TAF
KMKG 232340Z 2400/2424 34006KT P6SM SCT008 OVC030
     FM240200 34006KT 5SM BR VCSH OVC008
     FM240400 34004KT 2SM BR VCSH OVC004
     FM241500 32005KT 4SM BR OVC007
     FM241700 30006KT P6SM OVC015=

USA.gov is the U.S. government's official web portal to all federal, state and local government web resources and services.